sensor_id;sensor_type;location;lat;lon;timestamp;temperature;humidity
25438;DHT22;13364;49.084;9.978;2023-04-06T00:01:57;1.40;71.30
25438;DHT22;13364;49.084;9.978;2023-04-06T00:04:24;1.30;71.50
25438;DHT22;13364;49.084;9.978;2023-04-06T00:06:51;1.30;71.40
25438;DHT22;13364;49.084;9.978;2023-04-06T00:09:18;1.20;71.60
25438;DHT22;13364;49.084;9.978;2023-04-06T00:11:45;1.10;71.80
25438;DHT22;13364;49.084;9.978;2023-04-06T00:14:12;1.10;71.90
25438;DHT22;13364;49.084;9.978;2023-04-06T00:16:40;1.00;71.90
25438;DHT22;13364;49.084;9.978;2023-04-06T00:19:07;1.00;71.90
25438;DHT22;13364;49.084;9.978;2023-04-06T00:21:35;1.10;71.90
25438;DHT22;13364;49.084;9.978;2023-04-06T00:24:02;1.00;72.00
25438;DHT22;13364;49.084;9.978;2023-04-06T00:26:30;1.00;72.20
25438;DHT22;13364;49.084;9.978;2023-04-06T00:28:57;1.00;72.20
25438;DHT22;13364;49.084;9.978;2023-04-06T00:31:25;0.90;72.20
25438;DHT22;13364;49.084;9.978;2023-04-06T00:33:52;0.90;72.20
25438;DHT22;13364;49.084;9.978;2023-04-06T00:36:19;0.90;72.20
25438;DHT22;13364;49.084;9.978;2023-04-06T00:38:46;0.90;72.30
25438;DHT22;13364;49.084;9.978;2023-04-06T00:41:14;0.90;72.30
25438;DHT22;13364;49.084;9.978;2023-04-06T00:43:41;0.90;72.20
25438;DHT22;13364;49.084;9.978;2023-04-06T00:46:08;0.90;72.00
25438;DHT22;13364;49.084;9.978;2023-04-06T00:48:35;0.90;71.90
25438;DHT22;13364;49.084;9.978;2023-04-06T00:51:02;0.90;71.90
25438;DHT22;13364;49.084;9.978;2023-04-06T00:53:29;1.00;71.70
25438;DHT22;13364;49.084;9.978;2023-04-06T00:55:58;1.10;71.50
25438;DHT22;13364;49.084;9.978;2023-04-06T00:58:25;1.10;71.20
25438;DHT22;13364;49.084;9.978;2023-04-06T01:01:00;1.20;71.00
25438;DHT22;13364;49.084;9.978;2023-04-06T01:03:27;1.30;70.60
25438;DHT22;13364;49.084;9.978;2023-04-06T01:05:55;1.40;70.30
25438;DHT22;13364;49.084;9.978;2023-04-06T01:08:31;1.50;70.10
25438;DHT22;13364;49.084;9.978;2023-04-06T01:11:11;1.50;69.90
25438;DHT22;13364;49.084;9.978;2023-04-06T01:13:38;1.60;69.70
25438;DHT22;13364;49.084;9.978;2023-04-06T01:16:12;1.60;69.50
25438;DHT22;13364;49.084;9.978;2023-04-06T01:18:58;1.70;69.30
25438;DHT22;13364;49.084;9.978;2023-04-06T01:21:29;1.70;69.10
25438;DHT22;13364;49.084;9.978;2023-04-06T01:24:20;1.70;69.20
25438;DHT22;13364;49.084;9.978;2023-04-06T01:27:10;1.70;69.20
25438;DHT22;13364;49.084;9.978;2023-04-06T01:29:55;1.70;69.20
25438;DHT22;13364;49.084;9.978;2023-04-06T01:32:45;1.70;69.20
25438;DHT22;13364;49.084;9.978;2023-04-06T01:35:15;1.70;69.30
25438;DHT22;13364;49.084;9.978;2023-04-06T01:37:52;1.70;69.40
25438;DHT22;13364;49.084;9.978;2023-04-06T01:40:25;1.70;69.30
25438;DHT22;13364;49.084;9.978;2023-04-06T01:42:52;1.70;69.20
25438;DHT22;13364;49.084;9.978;2023-04-06T01:45:28;1.70;69.20
25438;DHT22;13364;49.084;9.978;2023-04-06T01:48:03;1.70;69.20
25438;DHT22;13364;49.084;9.978;2023-04-06T01:50:30;1.70;69.10
25438;DHT22;13364;49.084;9.978;2023-04-06T01:52:57;1.80;68.90
25438;DHT22;13364;49.084;9.978;2023-04-06T01:55:26;1.90;68.70
25438;DHT22;13364;49.084;9.978;2023-04-06T01:58:12;1.90;68.70
25438;DHT22;13364;49.084;9.978;2023-04-06T02:00:40;2.00;68.60
25438;DHT22;13364;49.084;9.978;2023-04-06T02:03:07;1.90;68.40
25438;DHT22;13364;49.084;9.978;2023-04-06T02:05:35;2.00;68.30
25438;DHT22;13364;49.084;9.978;2023-04-06T02:08:16;1.90;68.40
25438;DHT22;13364;49.084;9.978;2023-04-06T02:10:43;1.90;68.40
25438;DHT22;13364;49.084;9.978;2023-04-06T02:13:19;1.80;68.50
25438;DHT22;13364;49.084;9.978;2023-04-06T02:15:50;1.80;68.70
25438;DHT22;13364;49.084;9.978;2023-04-06T02:18:17;1.80;69.00
25438;DHT22;13364;49.084;9.978;2023-04-06T02:20:45;1.70;69.10
25438;DHT22;13364;49.084;9.978;2023-04-06T02:23:12;1.70;69.40
25438;DHT22;13364;49.084;9.978;2023-04-06T02:25:39;1.60;69.60
25438;DHT22;13364;49.084;9.978;2023-04-06T02:28:08;1.60;69.70
25438;DHT22;13364;49.084;9.978;2023-04-06T02:30:35;1.60;69.80
25438;DHT22;13364;49.084;9.978;2023-04-06T02:33:04;1.50;69.80
25438;DHT22;13364;49.084;9.978;2023-04-06T02:35:39;1.50;69.90
25438;DHT22;13364;49.084;9.978;2023-04-06T02:38:06;1.50;70.10
25438;DHT22;13364;49.084;9.978;2023-04-06T02:40:33;1.50;70.10
25438;DHT22;13364;49.084;9.978;2023-04-06T02:43:10;1.50;70.20
25438;DHT22;13364;49.084;9.978;2023-04-06T02:45:37;1.50;70.40
25438;DHT22;13364;49.084;9.978;2023-04-06T02:48:05;1.50;70.20
25438;DHT22;13364;49.084;9.978;2023-04-06T02:50:32;1.50;70.30
25438;DHT22;13364;49.084;9.978;2023-04-06T02:53:03;1.40;70.40
25438;DHT22;13364;49.084;9.978;2023-04-06T02:55:30;1.30;70.60
25438;DHT22;13364;49.084;9.978;2023-04-06T02:57:57;1.20;70.80
25438;DHT22;13364;49.084;9.978;2023-04-06T03:00:29;1.10;71.00
25438;DHT22;13364;49.084;9.978;2023-04-06T03:02:56;1.00;71.40
25438;DHT22;13364;49.084;9.978;2023-04-06T03:05:24;0.90;71.90
25438;DHT22;13364;49.084;9.978;2023-04-06T03:07:51;0.90;72.30
25438;DHT22;13364;49.084;9.978;2023-04-06T03:10:31;0.80;72.50
25438;DHT22;13364;49.084;9.978;2023-04-06T03:12:58;0.80;72.80
25438;DHT22;13364;49.084;9.978;2023-04-06T03:15:50;0.70;73.10
25438;DHT22;13364;49.084;9.978;2023-04-06T03:18:23;0.60;73.30
25438;DHT22;13364;49.084;9.978;2023-04-06T03:20:51;0.60;73.50
25438;DHT22;13364;49.084;9.978;2023-04-06T03:23:23;0.70;73.70
25438;DHT22;13364;49.084;9.978;2023-04-06T03:25:56;0.70;73.70
25438;DHT22;13364;49.084;9.978;2023-04-06T03:28:23;0.60;73.80
25438;DHT22;13364;49.084;9.978;2023-04-06T03:30:56;0.60;74.00
25438;DHT22;13364;49.084;9.978;2023-04-06T03:33:39;0.50;74.30
25438;DHT22;13364;49.084;9.978;2023-04-06T03:36:09;0.50;74.60
25438;DHT22;13364;49.084;9.978;2023-04-06T03:38:40;0.40;74.90
25438;DHT22;13364;49.084;9.978;2023-04-06T03:41:11;0.40;75.00
25438;DHT22;13364;49.084;9.978;2023-04-06T03:43:41;0.30;75.20
25438;DHT22;13364;49.084;9.978;2023-04-06T03:46:08;0.30;75.40
25438;DHT22;13364;49.084;9.978;2023-04-06T03:48:36;0.20;75.70
25438;DHT22;13364;49.084;9.978;2023-04-06T03:51:05;0.20;75.70
25438;DHT22;13364;49.084;9.978;2023-04-06T03:53:32;0.20;75.80
25438;DHT22;13364;49.084;9.978;2023-04-06T03:55:59;0.20;75.80
25438;DHT22;13364;49.084;9.978;2023-04-06T03:58:29;0.20;75.80
25438;DHT22;13364;49.084;9.978;2023-04-06T04:00:56;0.20;75.90
25438;DHT22;13364;49.084;9.978;2023-04-06T04:03:23;0.20;75.90
25438;DHT22;13364;49.084;9.978;2023-04-06T04:05:53;0.20;75.90
25438;DHT22;13364;49.084;9.978;2023-04-06T04:08:24;0.10;76.20
25438;DHT22;13364;49.084;9.978;2023-04-06T04:10:51;0.10;76.60
25438;DHT22;13364;49.084;9.978;2023-04-06T04:13:18;0.10;76.80
25438;DHT22;13364;49.084;9.978;2023-04-06T04:15:48;0.00;76.90
25438;DHT22;13364;49.084;9.978;2023-04-06T04:18:15;0.00;77.20
25438;DHT22;13364;49.084;9.978;2023-04-06T04:20:42;0.00;77.30
25438;DHT22;13364;49.084;9.978;2023-04-06T04:23:11;0.00;77.60
25438;DHT22;13364;49.084;9.978;2023-04-06T04:25:38;-0.10;77.70
25438;DHT22;13364;49.084;9.978;2023-04-06T04:28:05;0.00;77.70
25438;DHT22;13364;49.084;9.978;2023-04-06T04:30:33;0.00;77.60
25438;DHT22;13364;49.084;9.978;2023-04-06T04:33:00;0.00;77.30
25438;DHT22;13364;49.084;9.978;2023-04-06T04:35:27;0.00;77.40
25438;DHT22;13364;49.084;9.978;2023-04-06T04:37:56;0.00;77.60
25438;DHT22;13364;49.084;9.978;2023-04-06T04:40:23;-0.10;77.90
25438;DHT22;13364;49.084;9.978;2023-04-06T04:42:55;-0.10;78.20
25438;DHT22;13364;49.084;9.978;2023-04-06T04:45:30;-0.10;78.40
25438;DHT22;13364;49.084;9.978;2023-04-06T04:48:02;-0.20;78.40
25438;DHT22;13364;49.084;9.978;2023-04-06T04:50:36;-0.20;78.50
25438;DHT22;13364;49.084;9.978;2023-04-06T04:53:03;-0.20;78.80
25438;DHT22;13364;49.084;9.978;2023-04-06T04:55:33;-0.20;78.90
25438;DHT22;13364;49.084;9.978;2023-04-06T04:58:01;-0.20;78.80
25438;DHT22;13364;49.084;9.978;2023-04-06T05:00:43;-0.20;78.90
25438;DHT22;13364;49.084;9.978;2023-04-06T05:03:16;-0.20;78.90
25438;DHT22;13364;49.084;9.978;2023-04-06T05:05:46;-0.10;78.60
25438;DHT22;13364;49.084;9.978;2023-04-06T05:08:15;-0.10;78.70
25438;DHT22;13364;49.084;9.978;2023-04-06T05:10:46;-0.10;78.60
25438;DHT22;13364;49.084;9.978;2023-04-06T05:13:15;-0.10;78.80
25438;DHT22;13364;49.084;9.978;2023-04-06T05:15:44;-0.10;78.80
25438;DHT22;13364;49.084;9.978;2023-04-06T05:18:25;-0.10;78.80
25438;DHT22;13364;49.084;9.978;2023-04-06T05:20:53;-0.10;79.00
25438;DHT22;13364;49.084;9.978;2023-04-06T05:23:26;-0.10;79.10
25438;DHT22;13364;49.084;9.978;2023-04-06T05:25:53;0.00;79.10
25438;DHT22;13364;49.084;9.978;2023-04-06T05:28:22;0.00;79.10
25438;DHT22;13364;49.084;9.978;2023-04-06T05:30:49;0.00;79.30
25438;DHT22;13364;49.084;9.978;2023-04-06T05:33:17;0.00;79.40
25438;DHT22;13364;49.084;9.978;2023-04-06T05:36:00;0.00;79.70
25438;DHT22;13364;49.084;9.978;2023-04-06T05:38:28;-0.10;79.80
25438;DHT22;13364;49.084;9.978;2023-04-06T05:40:59;-0.10;80.00
25438;DHT22;13364;49.084;9.978;2023-04-06T05:43:30;-0.10;80.30
25438;DHT22;13364;49.084;9.978;2023-04-06T05:45:58;-0.10;80.40
25438;DHT22;13364;49.084;9.978;2023-04-06T05:48:26;-0.10;80.50
25438;DHT22;13364;49.084;9.978;2023-04-06T05:50:53;-0.10;80.40
25438;DHT22;13364;49.084;9.978;2023-04-06T05:53:26;0.00;80.50
25438;DHT22;13364;49.084;9.978;2023-04-06T05:56:00;0.00;80.40
25438;DHT22;13364;49.084;9.978;2023-04-06T05:58:28;0.00;80.50
25438;DHT22;13364;49.084;9.978;2023-04-06T06:00:59;0.00;80.40
25438;DHT22;13364;49.084;9.978;2023-04-06T06:03:35;0.10;80.20
25438;DHT22;13364;49.084;9.978;2023-04-06T06:06:03;0.20;79.80
25438;DHT22;13364;49.084;9.978;2023-04-06T06:08:58;0.20;79.80
25438;DHT22;13364;49.084;9.978;2023-04-06T06:11:31;0.30;79.60
25438;DHT22;13364;49.084;9.978;2023-04-06T06:14:00;0.40;79.70
25438;DHT22;13364;49.084;9.978;2023-04-06T06:16:30;0.50;79.60
25438;DHT22;13364;49.084;9.978;2023-04-06T06:18:57;0.60;79.20
25438;DHT22;13364;49.084;9.978;2023-04-06T06:21:24;0.70;79.00
25438;DHT22;13364;49.084;9.978;2023-04-06T06:23:52;0.70;78.90
25438;DHT22;13364;49.084;9.978;2023-04-06T06:26:21;0.80;79.00
25438;DHT22;13364;49.084;9.978;2023-04-06T06:28:49;0.80;78.80
25438;DHT22;13364;49.084;9.978;2023-04-06T06:31:16;0.90;78.90
25438;DHT22;13364;49.084;9.978;2023-04-06T06:33:43;0.90;78.90
25438;DHT22;13364;49.084;9.978;2023-04-06T06:36:11;1.00;78.90
25438;DHT22;13364;49.084;9.978;2023-04-06T06:38:39;1.10;78.50
25438;DHT22;13364;49.084;9.978;2023-04-06T06:41:06;1.10;78.40
25438;DHT22;13364;49.084;9.978;2023-04-06T06:43:35;1.20;78.50
25438;DHT22;13364;49.084;9.978;2023-04-06T06:46:06;1.20;78.80
25438;DHT22;13364;49.084;9.978;2023-04-06T06:48:33;1.40;79.00
25438;DHT22;13364;49.084;9.978;2023-04-06T06:51:01;1.50;78.40
25438;DHT22;13364;49.084;9.978;2023-04-06T06:53:28;1.70;78.10
25438;DHT22;13364;49.084;9.978;2023-04-06T06:55:55;1.90;78.10
25438;DHT22;13364;49.084;9.978;2023-04-06T06:58:23;2.00;77.40
25438;DHT22;13364;49.084;9.978;2023-04-06T07:00:50;2.20;76.80
25438;DHT22;13364;49.084;9.978;2023-04-06T07:03:18;2.30;76.90
25438;DHT22;13364;49.084;9.978;2023-04-06T07:05:46;2.40;76.60
25438;DHT22;13364;49.084;9.978;2023-04-06T07:08:22;2.50;75.40
25438;DHT22;13364;49.084;9.978;2023-04-06T07:10:51;2.60;74.60
25438;DHT22;13364;49.084;9.978;2023-04-06T07:13:23;2.70;74.50
25438;DHT22;13364;49.084;9.978;2023-04-06T07:15:54;2.80;74.50
25438;DHT22;13364;49.084;9.978;2023-04-06T07:18:22;2.90;74.60
25438;DHT22;13364;49.084;9.978;2023-04-06T07:20:49;3.00;75.30
25438;DHT22;13364;49.084;9.978;2023-04-06T07:23:17;3.10;75.40
25438;DHT22;13364;49.084;9.978;2023-04-06T07:25:44;3.30;75.20
25438;DHT22;13364;49.084;9.978;2023-04-06T07:28:11;3.40;74.70
25438;DHT22;13364;49.084;9.978;2023-04-06T07:30:39;3.40;73.90
25438;DHT22;13364;49.084;9.978;2023-04-06T07:33:08;3.50;73.50
25438;DHT22;13364;49.084;9.978;2023-04-06T07:35:36;3.60;74.10
25438;DHT22;13364;49.084;9.978;2023-04-06T07:38:04;3.70;74.80
25438;DHT22;13364;49.084;9.978;2023-04-06T07:40:33;3.80;74.30
25438;DHT22;13364;49.084;9.978;2023-04-06T07:43:00;4.00;73.80
25438;DHT22;13364;49.084;9.978;2023-04-06T07:45:29;4.10;72.70
25438;DHT22;13364;49.084;9.978;2023-04-06T07:47:57;4.30;71.70
25438;DHT22;13364;49.084;9.978;2023-04-06T07:50:25;4.40;70.90
25438;DHT22;13364;49.084;9.978;2023-04-06T07:52:53;4.70;70.50
25438;DHT22;13364;49.084;9.978;2023-04-06T07:55:20;4.80;68.90
25438;DHT22;13364;49.084;9.978;2023-04-06T07:57:47;5.00;67.10
25438;DHT22;13364;49.084;9.978;2023-04-06T08:00:15;5.20;66.00
25438;DHT22;13364;49.084;9.978;2023-04-06T08:02:42;5.30;63.80
25438;DHT22;13364;49.084;9.978;2023-04-06T08:05:09;5.50;62.50
25438;DHT22;13364;49.084;9.978;2023-04-06T08:07:37;5.60;62.80
25438;DHT22;13364;49.084;9.978;2023-04-06T08:10:04;5.70;60.80
25438;DHT22;13364;49.084;9.978;2023-04-06T08:12:32;5.80;61.50
25438;DHT22;13364;49.084;9.978;2023-04-06T08:18:37;6.10;59.60
25438;DHT22;13364;49.084;9.978;2023-04-06T08:21:04;6.20;60.50
25438;DHT22;13364;49.084;9.978;2023-04-06T08:23:31;6.40;59.90
25438;DHT22;13364;49.084;9.978;2023-04-06T08:25:58;6.60;60.30
25438;DHT22;13364;49.084;9.978;2023-04-06T08:28:25;6.80;58.30
25438;DHT22;13364;49.084;9.978;2023-04-06T08:30:52;6.90;57.40
25438;DHT22;13364;49.084;9.978;2023-04-06T08:33:19;6.90;56.60
25438;DHT22;13364;49.084;9.978;2023-04-06T08:35:46;7.10;56.50
25438;DHT22;13364;49.084;9.978;2023-04-06T08:38:13;7.20;56.80
25438;DHT22;13364;49.084;9.978;2023-04-06T08:40:40;7.40;56.50
25438;DHT22;13364;49.084;9.978;2023-04-06T08:43:10;7.60;56.80
25438;DHT22;13364;49.084;9.978;2023-04-06T08:45:41;7.80;54.10
25438;DHT22;13364;49.084;9.978;2023-04-06T08:48:08;7.90;53.50
25438;DHT22;13364;49.084;9.978;2023-04-06T08:53:41;8.00;52.30
25438;DHT22;13364;49.084;9.978;2023-04-06T08:56:09;8.00;51.90
25438;DHT22;13364;49.084;9.978;2023-04-06T08:58:39;8.10;49.90
25438;DHT22;13364;49.084;9.978;2023-04-06T09:04:35;8.20;50.40
25438;DHT22;13364;49.084;9.978;2023-04-06T09:07:03;8.30;50.10
25438;DHT22;13364;49.084;9.978;2023-04-06T09:09:30;8.50;52.00
25438;DHT22;13364;49.084;9.978;2023-04-06T09:11:57;8.90;50.00
25438;DHT22;13364;49.084;9.978;2023-04-06T09:14:38;9.00;49.50
25438;DHT22;13364;49.084;9.978;2023-04-06T09:17:07;9.30;48.90
25438;DHT22;13364;49.084;9.978;2023-04-06T09:19:44;9.50;48.70
25438;DHT22;13364;49.084;9.978;2023-04-06T09:22:11;9.80;49.10
25438;DHT22;13364;49.084;9.978;2023-04-06T09:24:43;9.90;48.50
25438;DHT22;13364;49.084;9.978;2023-04-06T09:27:10;10.10;47.90
25438;DHT22;13364;49.084;9.978;2023-04-06T09:29:37;10.30;48.90
25438;DHT22;13364;49.084;9.978;2023-04-06T09:32:32;10.60;48.00
25438;DHT22;13364;49.084;9.978;2023-04-06T09:35:09;11.00;45.60
25438;DHT22;13364;49.084;9.978;2023-04-06T09:37:36;11.10;45.00
25438;DHT22;13364;49.084;9.978;2023-04-06T09:40:07;11.20;44.30
25438;DHT22;13364;49.084;9.978;2023-04-06T09:42:35;11.10;44.00
25438;DHT22;13364;49.084;9.978;2023-04-06T09:45:03;11.00;44.40
25438;DHT22;13364;49.084;9.978;2023-04-06T09:47:30;10.90;45.60
25438;DHT22;13364;49.084;9.978;2023-04-06T09:49:59;10.80;44.50
25438;DHT22;13364;49.084;9.978;2023-04-06T09:52:31;10.70;45.90
25438;DHT22;13364;49.084;9.978;2023-04-06T09:55:03;10.80;46.60
25438;DHT22;13364;49.084;9.978;2023-04-06T10:00:08;11.00;45.50
25438;DHT22;13364;49.084;9.978;2023-04-06T10:02:51;11.20;45.60
25438;DHT22;13364;49.084;9.978;2023-04-06T10:05:42;11.40;45.70
25438;DHT22;13364;49.084;9.978;2023-04-06T10:08:11;11.60;45.10
25438;DHT22;13364;49.084;9.978;2023-04-06T10:10:39;11.90;44.80
25438;DHT22;13364;49.084;9.978;2023-04-06T10:13:07;11.90;44.80
25438;DHT22;13364;49.084;9.978;2023-04-06T10:15:34;12.00;43.90
25438;DHT22;13364;49.084;9.978;2023-04-06T10:18:02;12.20;43.80
25438;DHT22;13364;49.084;9.978;2023-04-06T10:21:23;12.40;43.30
25438;DHT22;13364;49.084;9.978;2023-04-06T10:26:01;12.40;41.00
25438;DHT22;13364;49.084;9.978;2023-04-06T10:28:34;12.10;40.60
25438;DHT22;13364;49.084;9.978;2023-04-06T10:31:05;11.50;41.70
25438;DHT22;13364;49.084;9.978;2023-04-06T10:33:33;11.00;44.30
25438;DHT22;13364;49.084;9.978;2023-04-06T10:36:10;10.90;46.40
25438;DHT22;13364;49.084;9.978;2023-04-06T10:38:39;11.20;47.50
25438;DHT22;13364;49.084;9.978;2023-04-06T10:41:12;11.40;44.20
25438;DHT22;13364;49.084;9.978;2023-04-06T10:43:40;11.50;43.50
25438;DHT22;13364;49.084;9.978;2023-04-06T10:46:09;11.60;43.90
25438;DHT22;13364;49.084;9.978;2023-04-06T10:48:41;11.60;43.60
25438;DHT22;13364;49.084;9.978;2023-04-06T10:51:13;11.60;43.50
25438;DHT22;13364;49.084;9.978;2023-04-06T10:57:27;11.60;44.50
25438;DHT22;13364;49.084;9.978;2023-04-06T10:59:54;11.50;43.50
25438;DHT22;13364;49.084;9.978;2023-04-06T11:02:21;11.30;43.00
25438;DHT22;13364;49.084;9.978;2023-04-06T11:04:56;11.10;43.70
25438;DHT22;13364;49.084;9.978;2023-04-06T11:07:25;10.80;45.10
25438;DHT22;13364;49.084;9.978;2023-04-06T11:09:53;10.70;44.10
25438;DHT22;13364;49.084;9.978;2023-04-06T11:12:40;10.70;45.80
25438;DHT22;13364;49.084;9.978;2023-04-06T11:15:08;10.90;46.00
25438;DHT22;13364;49.084;9.978;2023-04-06T11:17:36;11.10;44.80
25438;DHT22;13364;49.084;9.978;2023-04-06T11:20:09;11.10;44.60
25438;DHT22;13364;49.084;9.978;2023-04-06T11:22:36;11.10;46.50
25438;DHT22;13364;49.084;9.978;2023-04-06T11:25:14;11.30;44.30
25438;DHT22;13364;49.084;9.978;2023-04-06T11:27:43;11.20;44.70
25438;DHT22;13364;49.084;9.978;2023-04-06T11:30:10;11.20;44.60
25438;DHT22;13364;49.084;9.978;2023-04-06T11:32:42;11.20;44.70
25438;DHT22;13364;49.084;9.978;2023-04-06T11:35:31;11.20;45.20
25438;DHT22;13364;49.084;9.978;2023-04-06T11:38:02;11.40;44.90
25438;DHT22;13364;49.084;9.978;2023-04-06T11:40:29;11.30;44.70
25438;DHT22;13364;49.084;9.978;2023-04-06T11:42:57;11.40;44.50
25438;DHT22;13364;49.084;9.978;2023-04-06T11:46:02;11.40;45.00
25438;DHT22;13364;49.084;9.978;2023-04-06T11:48:46;11.70;44.20
25438;DHT22;13364;49.084;9.978;2023-04-06T11:51:21;12.10;43.40
25438;DHT22;13364;49.084;9.978;2023-04-06T11:53:49;12.20;44.00
25438;DHT22;13364;49.084;9.978;2023-04-06T11:56:24;12.40;41.60
25438;DHT22;13364;49.084;9.978;2023-04-06T11:58:53;12.20;41.80
25438;DHT22;13364;49.084;9.978;2023-04-06T12:01:21;11.90;42.00
25438;DHT22;13364;49.084;9.978;2023-04-06T12:03:50;11.90;43.00
25438;DHT22;13364;49.084;9.978;2023-04-06T12:06:18;11.80;44.10
25438;DHT22;13364;49.084;9.978;2023-04-06T12:08:45;12.00;42.30
25438;DHT22;13364;49.084;9.978;2023-04-06T12:11:13;11.90;42.70
25438;DHT22;13364;49.084;9.978;2023-04-06T12:13:40;11.80;42.90
25438;DHT22;13364;49.084;9.978;2023-04-06T12:16:07;11.80;43.10
25438;DHT22;13364;49.084;9.978;2023-04-06T12:19:05;11.80;42.80
25438;DHT22;13364;49.084;9.978;2023-04-06T12:21:33;12.00;43.70
25438;DHT22;13364;49.084;9.978;2023-04-06T12:24:01;12.30;44.10
25438;DHT22;13364;49.084;9.978;2023-04-06T12:26:29;12.50;41.20
25438;DHT22;13364;49.084;9.978;2023-04-06T12:28:58;12.60;41.70
25438;DHT22;13364;49.084;9.978;2023-04-06T12:31:32;12.70;42.80
25438;DHT22;13364;49.084;9.978;2023-04-06T12:33:59;13.00;42.50
25438;DHT22;13364;49.084;9.978;2023-04-06T12:36:26;13.40;42.70
25438;DHT22;13364;49.084;9.978;2023-04-06T12:38:53;13.90;41.00
25438;DHT22;13364;49.084;9.978;2023-04-06T12:41:20;14.30;40.70
25438;DHT22;13364;49.084;9.978;2023-04-06T12:43:48;14.80;38.30
25438;DHT22;13364;49.084;9.978;2023-04-06T12:46:16;15.10;39.30
25438;DHT22;13364;49.084;9.978;2023-04-06T12:48:43;15.30;37.80
25438;DHT22;13364;49.084;9.978;2023-04-06T12:51:11;15.10;38.40
25438;DHT22;13364;49.084;9.978;2023-04-06T12:53:38;15.20;38.00
25438;DHT22;13364;49.084;9.978;2023-04-06T12:56:28;15.20;37.60
25438;DHT22;13364;49.084;9.978;2023-04-06T12:58:55;15.10;37.80
25438;DHT22;13364;49.084;9.978;2023-04-06T13:01:22;14.90;37.70
25438;DHT22;13364;49.084;9.978;2023-04-06T13:03:49;14.90;37.60
25438;DHT22;13364;49.084;9.978;2023-04-06T13:06:16;15.00;37.30
25438;DHT22;13364;49.084;9.978;2023-04-06T13:08:43;15.10;36.70
25438;DHT22;13364;49.084;9.978;2023-04-06T13:11:11;15.00;36.70
25438;DHT22;13364;49.084;9.978;2023-04-06T13:13:38;15.00;36.90
25438;DHT22;13364;49.084;9.978;2023-04-06T13:16:08;14.90;39.10
25438;DHT22;13364;49.084;9.978;2023-04-06T13:18:35;15.00;39.00
25438;DHT22;13364;49.084;9.978;2023-04-06T13:21:06;15.30;37.60
25438;DHT22;13364;49.084;9.978;2023-04-06T13:23:34;15.40;35.50
25438;DHT22;13364;49.084;9.978;2023-04-06T13:26:06;15.40;36.30
25438;DHT22;13364;49.084;9.978;2023-04-06T13:28:35;15.60;36.50
25438;DHT22;13364;49.084;9.978;2023-04-06T13:31:03;15.90;36.60
25438;DHT22;13364;49.084;9.978;2023-04-06T13:33:31;16.20;36.30
25438;DHT22;13364;49.084;9.978;2023-04-06T13:35:58;16.40;35.30
25438;DHT22;13364;49.084;9.978;2023-04-06T13:38:25;16.40;34.70
25438;DHT22;13364;49.084;9.978;2023-04-06T13:40:52;16.20;35.00
25438;DHT22;13364;49.084;9.978;2023-04-06T13:43:20;16.20;35.50
25438;DHT22;13364;49.084;9.978;2023-04-06T13:45:51;16.20;36.20
25438;DHT22;13364;49.084;9.978;2023-04-06T13:48:19;16.50;37.70
25438;DHT22;13364;49.084;9.978;2023-04-06T13:50:46;16.70;34.80
25438;DHT22;13364;49.084;9.978;2023-04-06T13:53:13;16.80;34.20
25438;DHT22;13364;49.084;9.978;2023-04-06T13:55:41;16.90;35.70
25438;DHT22;13364;49.084;9.978;2023-04-06T13:58:08;17.00;35.20
25438;DHT22;13364;49.084;9.978;2023-04-06T14:00:35;17.10;35.10
25438;DHT22;13364;49.084;9.978;2023-04-06T14:03:03;17.20;34.60
25438;DHT22;13364;49.084;9.978;2023-04-06T14:05:32;17.30;35.20
25438;DHT22;13364;49.084;9.978;2023-04-06T14:07:59;17.60;34.90
25438;DHT22;13364;49.084;9.978;2023-04-06T14:10:26;17.70;33.70
25438;DHT22;13364;49.084;9.978;2023-04-06T14:12:54;17.70;33.50
25438;DHT22;13364;49.084;9.978;2023-04-06T14:15:22;17.60;32.50
25438;DHT22;13364;49.084;9.978;2023-04-06T14:17:50;17.30;32.40
25438;DHT22;13364;49.084;9.978;2023-04-06T14:20:18;16.90;31.50
25438;DHT22;13364;49.084;9.978;2023-04-06T14:22:45;16.40;32.90
25438;DHT22;13364;49.084;9.978;2023-04-06T14:25:13;16.10;33.50
25438;DHT22;13364;49.084;9.978;2023-04-06T14:27:40;15.80;34.30
25438;DHT22;13364;49.084;9.978;2023-04-06T14:30:08;15.50;34.60
25438;DHT22;13364;49.084;9.978;2023-04-06T14:32:35;15.40;34.10
25438;DHT22;13364;49.084;9.978;2023-04-06T14:35:04;15.30;34.30
25438;DHT22;13364;49.084;9.978;2023-04-06T14:37:33;15.30;35.80
25438;DHT22;13364;49.084;9.978;2023-04-06T14:40:02;15.30;36.20
25438;DHT22;13364;49.084;9.978;2023-04-06T14:42:29;15.30;36.00
25438;DHT22;13364;49.084;9.978;2023-04-06T14:44:57;15.30;36.70
25438;DHT22;13364;49.084;9.978;2023-04-06T14:47:24;15.50;35.90
25438;DHT22;13364;49.084;9.978;2023-04-06T14:49:51;15.60;35.50
25438;DHT22;13364;49.084;9.978;2023-04-06T14:52:22;15.80;37.60
25438;DHT22;13364;49.084;9.978;2023-04-06T14:54:49;16.00;37.10
25438;DHT22;13364;49.084;9.978;2023-04-06T14:57:16;16.20;36.50
25438;DHT22;13364;49.084;9.978;2023-04-06T14:59:43;16.30;36.20
25438;DHT22;13364;49.084;9.978;2023-04-06T15:02:10;16.40;36.50
25438;DHT22;13364;49.084;9.978;2023-04-06T15:04:39;16.50;34.00
25438;DHT22;13364;49.084;9.978;2023-04-06T15:07:06;16.40;34.40
25438;DHT22;13364;49.084;9.978;2023-04-06T15:09:33;16.20;33.50
25438;DHT22;13364;49.084;9.978;2023-04-06T15:12:00;16.00;33.80
25438;DHT22;13364;49.084;9.978;2023-04-06T15:14:28;15.80;34.70
25438;DHT22;13364;49.084;9.978;2023-04-06T15:16:55;15.70;35.80
25438;DHT22;13364;49.084;9.978;2023-04-06T15:19:22;15.60;34.30
25438;DHT22;13364;49.084;9.978;2023-04-06T15:21:49;15.50;35.50
25438;DHT22;13364;49.084;9.978;2023-04-06T15:24:16;15.40;35.60
25438;DHT22;13364;49.084;9.978;2023-04-06T15:26:43;15.40;38.60
25438;DHT22;13364;49.084;9.978;2023-04-06T15:29:17;15.50;35.40
25438;DHT22;13364;49.084;9.978;2023-04-06T15:31:44;15.20;34.40
25438;DHT22;13364;49.084;9.978;2023-04-06T15:34:13;14.70;34.40
25438;DHT22;13364;49.084;9.978;2023-04-06T15:36:40;14.40;35.30
25438;DHT22;13364;49.084;9.978;2023-04-06T15:39:10;14.30;42.60
25438;DHT22;13364;49.084;9.978;2023-04-06T15:41:37;14.10;36.90
25438;DHT22;13364;49.084;9.978;2023-04-06T15:44:04;14.00;37.20
25438;DHT22;13364;49.084;9.978;2023-04-06T15:46:31;14.00;37.50
25438;DHT22;13364;49.084;9.978;2023-04-06T15:48:58;14.00;39.20
25438;DHT22;13364;49.084;9.978;2023-04-06T15:51:25;14.00;39.50
25438;DHT22;13364;49.084;9.978;2023-04-06T15:53:53;14.10;38.90
25438;DHT22;13364;49.084;9.978;2023-04-06T15:56:20;14.10;37.00
25438;DHT22;13364;49.084;9.978;2023-04-06T15:58:48;14.10;36.90
25438;DHT22;13364;49.084;9.978;2023-04-06T16:01:16;14.10;37.30
25438;DHT22;13364;49.084;9.978;2023-04-06T16:03:45;13.90;38.50
25438;DHT22;13364;49.084;9.978;2023-04-06T16:06:12;13.70;40.00
25438;DHT22;13364;49.084;9.978;2023-04-06T16:08:40;13.20;38.40
25438;DHT22;13364;49.084;9.978;2023-04-06T16:11:08;13.10;39.50
25438;DHT22;13364;49.084;9.978;2023-04-06T16:13:35;13.10;40.80